createdAt,value
2023-01-28T00:02:01.292Z,-0.43
2023-01-28T00:04:30.253Z,-0.52
2023-01-28T00:06:59.232Z,-0.51
2023-01-28T00:09:28.136Z,-0.45
2023-01-28T00:11:59.894Z,-0.43
2023-01-28T00:14:40.165Z,-0.46
2023-01-28T00:17:08.921Z,-0.50
2023-01-28T00:19:39.344Z,-0.47
2023-01-28T00:22:08.137Z,-0.46
2023-01-28T00:24:36.970Z,-0.53
2023-01-28T00:27:05.896Z,-0.54
2023-01-28T00:29:34.729Z,-0.50
2023-01-28T00:32:03.741Z,-0.29
2023-01-28T00:34:32.790Z,-0.38
2023-01-28T00:37:01.500Z,-0.22
2023-01-28T00:39:30.279Z,-0.22
2023-01-28T00:41:59.275Z,-0.22
2023-01-28T00:44:28.102Z,-0.19
2023-01-28T00:47:08.217Z,-0.35
2023-01-28T00:49:39.920Z,-0.33
2023-01-28T00:52:08.857Z,-0.30
2023-01-28T00:54:38.017Z,-0.33
2023-01-28T00:57:08.221Z,-0.09
2023-01-28T00:59:37.103Z,-0.25
2023-01-28T01:02:07.474Z,-0.22
2023-01-28T01:04:36.456Z,-0.31
2023-01-28T01:07:06.045Z,-0.33
2023-01-28T01:09:35.004Z,-0.38
2023-01-28T01:12:03.826Z,-0.38
2023-01-28T01:14:36.968Z,-0.23
2023-01-28T01:17:07.975Z,-0.30
2023-01-28T01:19:38.017Z,-0.07
2023-01-28T01:22:06.832Z,-0.18
2023-01-28T01:24:37.234Z,-0.25
2023-01-28T01:27:06.373Z,-0.34
2023-01-28T01:29:35.429Z,-0.35
2023-01-28T01:32:04.301Z,-0.47
2023-01-28T01:34:37.498Z,-0.37
2023-01-28T01:37:09.800Z,-0.46
2023-01-28T01:39:38.787Z,-0.45
2023-01-28T01:42:13.508Z,-0.47
2023-01-28T01:45:00.334Z,-0.55
2023-01-28T01:47:38.192Z,-0.57
2023-01-28T01:50:09.960Z,-0.52
2023-01-28T01:52:38.930Z,-0.43
2023-01-28T01:55:10.923Z,-0.32
2023-01-28T01:57:40.329Z,-0.30
2023-01-28T02:00:13.076Z,-0.35
2023-01-28T02:02:44.992Z,-0.36
2023-01-28T02:05:16.380Z,-0.38
2023-01-28T02:07:50.687Z,-0.38
2023-01-28T02:10:19.741Z,-0.37
2023-01-28T02:13:01.901Z,-0.38
2023-01-28T02:15:30.800Z,-0.59
2023-01-28T02:17:59.719Z,-0.46
2023-01-28T02:20:47.948Z,-0.50
2023-01-28T02:23:42.547Z,-0.51
2023-01-28T02:26:19.985Z,-0.42
2023-01-28T02:28:57.946Z,-0.56
2023-01-28T02:31:32.576Z,-0.66
2023-01-28T02:37:06.414Z,-0.57
2023-01-28T02:39:41.298Z,-1.10
2023-01-28T02:42:19.136Z,-0.55
2023-01-28T02:44:50.769Z,-0.74
2023-01-28T02:47:49.410Z,-0.71
2023-01-28T03:01:17.212Z,-0.59
2023-01-28T03:10:45.429Z,-1.21
2023-01-28T03:19:48.926Z,-0.73
2023-01-28T03:20:23.932Z,-0.86
2023-01-28T03:23:32.869Z,-0.83
2023-01-28T03:30:24.266Z,-0.91
2023-01-28T03:33:18.667Z,-0.87
2023-01-28T03:36:14.553Z,-0.98
2023-01-28T03:52:19.165Z,-0.75
2023-01-28T03:55:03.637Z,-0.74
2023-01-28T03:57:37.947Z,-0.69
2023-01-28T04:16:31.020Z,-0.87
2023-01-28T04:25:49.043Z,-0.94
2023-01-28T04:31:46.563Z,-0.92
2023-01-28T04:54:55.507Z,-1.02
2023-01-28T04:57:38.518Z,-1.14
2023-01-28T05:09:53.833Z,-1.24
2023-01-28T05:47:47.638Z,-0.98
2023-01-28T05:50:31.681Z,-1.08
2023-01-28T05:53:07.896Z,-1.06
2023-01-28T05:55:58.423Z,-1.00
2023-01-28T05:58:41.669Z,-1.07
2023-01-28T06:01:18.445Z,-1.09
2023-01-28T06:03:53.360Z,-0.90
2023-01-28T06:39:28.653Z,-0.98
2023-01-28T07:14:38.976Z,-0.85
2023-01-28T08:17:46.878Z,-0.18
2023-01-28T08:20:44.414Z,-0.28
2023-01-28T08:23:31.859Z,-0.26
2023-01-28T08:36:14.548Z,0.00
2023-01-28T08:38:51.799Z,-0.03
2023-01-28T08:51:55.875Z,0.82
2023-01-28T08:54:51.964Z,1.25
2023-01-28T09:00:11.792Z,1.13
2023-01-28T09:02:59.502Z,1.28
2023-01-28T09:05:28.323Z,1.33
2023-01-28T09:08:02.942Z,1.40
2023-01-28T09:10:31.804Z,1.02
2023-01-28T09:13:02.782Z,0.52
2023-01-28T09:15:36.287Z,0.53
2023-01-28T09:18:07.970Z,0.70
2023-01-28T09:21:01.811Z,0.60
2023-01-28T09:23:41.363Z,0.32
2023-01-28T09:29:32.588Z,0.63
2023-01-28T09:32:53.701Z,0.09
2023-01-28T09:35:23.532Z,0.33
2023-01-28T09:38:09.079Z,0.65
2023-01-28T09:47:42.349Z,0.26
2023-01-28T09:53:50.359Z,0.77
2023-01-28T09:56:19.255Z,0.60
2023-01-28T09:58:48.403Z,0.04
2023-01-28T10:01:46.949Z,-0.11
2023-01-28T10:04:37.564Z,-0.01
2023-01-28T10:08:02.134Z,0.37
2023-01-28T10:10:39.282Z,0.61
2023-01-28T10:13:14.689Z,0.45
2023-01-28T10:16:07.836Z,0.21
2023-01-28T10:18:45.189Z,0.30
2023-01-28T10:21:50.008Z,0.34
2023-01-28T10:28:23.251Z,0.60
2023-01-28T10:30:52.960Z,0.97
2023-01-28T10:33:38.716Z,0.89
2023-01-28T10:40:39.974Z,0.64
2023-01-28T11:03:23.102Z,1.15
2023-01-28T11:04:54.019Z,1.13
2023-01-28T12:52:12.969Z,1.42
2023-01-28T13:43:43.787Z,1.39
2023-01-28T13:46:23.232Z,1.39
2023-01-28T13:51:19.800Z,1.33
2023-01-28T14:20:53.240Z,0.83
2023-01-28T14:23:22.662Z,0.79
2023-01-28T14:32:24.460Z,0.48
2023-01-28T14:35:11.478Z,0.40
2023-01-28T14:38:06.950Z,0.42
2023-01-28T14:44:19.916Z,0.48
2023-01-28T14:50:30.867Z,0.21
2023-01-28T14:53:16.341Z,0.08
2023-01-28T14:56:08.367Z,0.11
2023-01-28T14:58:46.538Z,0.08
2023-01-28T15:01:44.460Z,0.22
2023-01-28T15:04:41.449Z,0.15
2023-01-28T15:07:22.079Z,0.07
2023-01-28T15:10:06.079Z,0.09
2023-01-28T15:12:37.461Z,0.11
2023-01-28T15:15:15.489Z,0.11
2023-01-28T15:17:44.951Z,0.03
2023-01-28T15:20:19.509Z,0.01
2023-01-28T15:22:53.282Z,0.01
2023-01-28T15:25:25.881Z,0.03
2023-01-28T15:28:04.692Z,0.07
2023-01-28T15:30:37.549Z,0.05
2023-01-28T15:33:14.368Z,-0.07
2023-01-28T15:42:16.799Z,-0.09
2023-01-28T15:57:57.802Z,-0.13
2023-01-28T16:07:27.177Z,-0.63
2023-01-28T16:10:16.322Z,-0.22
2023-01-28T16:15:37.753Z,-0.21
2023-01-28T16:18:45.443Z,-0.79
2023-01-28T16:22:26.472Z,-0.35
2023-01-28T16:24:40.877Z,-0.25
2023-01-28T16:36:20.832Z,-0.20
2023-01-28T16:39:19.996Z,-0.14
2023-01-28T16:41:46.920Z,-0.63
2023-01-28T16:44:18.725Z,-0.26
2023-01-28T16:46:47.839Z,-0.16
2023-01-28T16:49:22.296Z,-0.09
2023-01-28T16:51:59.073Z,-0.20
2023-01-28T16:54:46.988Z,-0.17
2023-01-28T16:57:23.519Z,-0.21
2023-01-28T17:05:43.277Z,-0.09
2023-01-28T17:19:00.456Z,-0.22
2023-01-28T17:28:20.980Z,-0.36
2023-01-28T17:30:58.618Z,-0.48
2023-01-28T17:33:38.775Z,-0.44
2023-01-28T17:36:09.406Z,-0.44
2023-01-28T17:41:37.222Z,-0.50
2023-01-28T17:44:08.033Z,-0.52
2023-01-28T17:46:40.124Z,-0.67
2023-01-28T17:49:17.738Z,-0.79
2023-01-28T17:51:53.295Z,-0.71
2023-01-28T17:57:41.700Z,-0.65
2023-01-28T18:00:13.304Z,-0.69
2023-01-28T18:02:43.976Z,-0.67
2023-01-28T18:05:37.502Z,-1.20
2023-01-28T18:08:07.895Z,-0.68
2023-01-28T18:10:45.506Z,-0.68
2023-01-28T18:13:16.359Z,-0.73
2023-01-28T18:15:58.226Z,-0.74
2023-01-28T18:18:30.341Z,-0.66
2023-01-28T18:21:12.145Z,-0.72
2023-01-28T18:23:44.854Z,-0.63
2023-01-28T18:26:17.254Z,-0.65
2023-01-28T18:29:06.114Z,-0.60
2023-01-28T18:31:35.244Z,-0.59
2023-01-28T18:34:07.835Z,-0.60
2023-01-28T18:36:38.553Z,-0.57
2023-01-28T18:39:32.240Z,-0.54
2023-01-28T18:42:01.279Z,-0.49
2023-01-28T18:44:34.494Z,-0.56
2023-01-28T18:47:06.317Z,-0.60
2023-01-28T18:49:43.385Z,-0.63
2023-01-28T18:52:15.026Z,-0.66
2023-01-28T18:54:51.360Z,-0.74
2023-01-28T18:57:21.408Z,-0.73
2023-01-28T18:59:52.129Z,-0.69
2023-01-28T19:02:31.637Z,-0.71
2023-01-28T19:05:08.457Z,-0.71
2023-01-28T19:07:39.087Z,-0.75
2023-01-28T19:10:12.393Z,-0.80
2023-01-28T19:13:00.535Z,-0.86
2023-01-28T19:15:44.933Z,-0.87
2023-01-28T19:18:19.491Z,-0.83
2023-01-28T19:20:48.826Z,-0.79
2023-01-28T19:23:17.884Z,-0.70
2023-01-28T19:25:54.088Z,-0.72
2023-01-28T19:28:27.545Z,-0.72
2023-01-28T19:31:00.693Z,-0.69
2023-01-28T19:33:42.254Z,-0.64
2023-01-28T19:36:14.084Z,-0.66
2023-01-28T20:15:09.331Z,-0.72
2023-01-28T20:27:27.015Z,-0.69
2023-01-28T20:29:55.817Z,-0.52
2023-01-28T20:32:26.947Z,-0.61
2023-01-28T20:35:01.350Z,-0.65
2023-01-28T20:37:30.226Z,-0.71
2023-01-28T20:40:01.961Z,-0.66
2023-01-28T20:42:32.794Z,-0.59
2023-01-28T20:45:04.362Z,-0.59
2023-01-28T20:47:34.388Z,-0.50
2023-01-28T20:50:05.700Z,-0.48
2023-01-28T20:52:34.635Z,-0.67
2023-01-28T20:55:03.393Z,-0.57
2023-01-28T20:57:35.597Z,-0.56
2023-01-28T21:00:14.764Z,-0.62
2023-01-28T21:02:46.224Z,-0.64
2023-01-28T21:05:17.209Z,-0.65
2023-01-28T21:07:47.939Z,-0.61
2023-01-28T21:10:20.455Z,-0.70
2023-01-28T21:12:52.974Z,-0.69
2023-01-28T21:15:24.292Z,-0.70
2023-01-28T21:17:59.101Z,-0.73
2023-01-28T21:20:23.458Z,-0.67
2023-01-28T21:25:50.608Z,-0.63
2023-01-28T21:28:20.773Z,-0.66
2023-01-28T21:30:49.645Z,-0.51
2023-01-28T21:33:26.436Z,-0.52
2023-01-28T21:35:55.295Z,-0.37
2023-01-28T21:38:26.987Z,-0.63
2023-01-28T21:41:00.658Z,-0.71
2023-01-28T21:46:42.925Z,-0.67
2023-01-28T21:49:16.072Z,-0.72
2023-01-28T21:51:47.954Z,-0.73
2023-01-28T21:54:23.486Z,-0.79
2023-01-28T21:56:53.860Z,-0.39
2023-01-28T21:59:31.834Z,-0.45
2023-01-28T22:02:18.110Z,-0.66
2023-01-28T22:04:54.030Z,-0.67
2023-01-28T22:07:25.717Z,-0.78
2023-01-28T22:09:56.886Z,-0.74
2023-01-28T22:12:28.616Z,-0.76
2023-01-28T22:15:01.810Z,-0.78
2023-01-28T22:17:33.029Z,-0.69
2023-01-28T22:20:01.920Z,-0.67
2023-01-28T22:22:34.063Z,-0.75
2023-01-28T22:27:45.862Z,-0.63
2023-01-28T22:30:15.336Z,-0.69
2023-01-28T22:32:44.333Z,-0.80
2023-01-28T22:35:37.888Z,-0.90
2023-01-28T22:38:09.177Z,-0.92
2023-01-28T22:40:52.771Z,-0.94
2023-01-28T22:43:37.461Z,-0.81
2023-01-28T22:46:07.245Z,-0.87
2023-01-28T22:48:37.889Z,-0.80
2023-01-28T22:51:09.030Z,-0.81
2023-01-28T22:53:37.714Z,-0.90
2023-01-28T22:56:08.933Z,-0.79
2023-01-28T22:58:38.751Z,-0.81
2023-01-28T23:01:08.035Z,-0.79
2023-01-28T23:03:37.990Z,-0.85
2023-01-28T23:06:06.794Z,-0.86
2023-01-28T23:08:35.525Z,-0.76
2023-01-28T23:11:04.633Z,-0.79
2023-01-28T23:13:37.953Z,-0.87
2023-01-28T23:16:30.705Z,-0.92
2023-01-28T23:19:20.538Z,-0.90
2023-01-28T23:22:08.837Z,-0.83
2023-01-28T23:24:40.736Z,-0.88
2023-01-28T23:27:09.549Z,-0.88
2023-01-28T23:29:40.796Z,-0.78
2023-01-28T23:32:14.697Z,-0.88
2023-01-28T23:34:46.319Z,-0.89
2023-01-28T23:37:15.937Z,-0.89
2023-01-28T23:39:44.525Z,-0.81
2023-01-28T23:42:16.108Z,-0.79
2023-01-28T23:44:44.845Z,-0.77
2023-01-28T23:47:13.909Z,-0.89
2023-01-28T23:49:42.915Z,-0.90
2023-01-28T23:52:13.229Z,-0.91
2023-01-28T23:54:41.901Z,-0.81
2023-01-28T23:57:10.515Z,-0.73
2023-01-28T23:59:39.149Z,-0.90
